Mirgab Vi — ZGAO4 — position and weather

sailwx.info

Track history (hours):
 
Tides and Currents Weather Stations Pressure Air Temp Water Temp Dewpoint Dewpoint Depression Visibility Wind Speed Wind Dir Waves Ship Positions

Mirgab Vi

Last reported at 2014-Oct-04 15:28 UTC. Time now 2014-Nov-22 09:05 UTC.
Position N 43°32' E 007°02'.
Warning: this ship's position is 48 days out of date.

Length 49 m; draft 2.9 m.

Type: Pleasure craft. MMSI: 319394000.

Date/timePositionNaut miles runAvg speedWind from/ knotsBaromVisibWave heightAir tempDewpointWater temp
2014-Oct-04 15:28N 43°32' E 007°02'0 0.0
2014-Oct-04 14:33N 43°32' E 007°02'0 0.2
2014-Oct-04 13:30N 43°33' E 007°02'7 7.0
2014-Oct-04 12:33N 43°28' E 007°09'  
2014-Oct-01 08:15N 37°55' E 023°01'15 5.4
2014-Oct-01 05:33N 37°52' E 023°19'1111.3
2014-Oct-01 04:33N 37°51' E 023°33'1010.0
2014-Oct-01 03:33N 37°45' E 023°43'1410.6
2014-Oct-01 02:16N 37°37' E 023°57'811.4
2014-Oct-01 01:32N 37°33' E 024°06'1110.6
2014-Oct-01 00:32N 37°30' E 024°19'1110.4
2014-Sep-30 23:31N 37°31' E 024°33'1010.1
2014-Sep-30 22:33N 37°24' E 024°41'1111.5
2014-Sep-30 21:33N 37°19' E 024°54'1212.0
2014-Sep-30 20:33N 37°19' E 025°09'1211.9
2014-Sep-30 19:33N 37°20' E 025°24'1110.5
2014-Sep-30 18:33N 37°22' E 025°37'9 9.2
2014-Sep-30 17:33N 37°25' E 025°48'10 9.4
2014-Sep-30 16:29N 37°28' E 025°60'1011.0
2014-Sep-30 15:33N 37°32' E 026°12'9 8.6
2014-Sep-30 14:33N 37°30' E 026°22'  
Track history (hours):
 
Tides and Currents Weather Stations Pressure Air Temp Water Temp Dewpoint Dewpoint Depression Visibility Wind Speed Wind Dir Waves Ship Positions

Mirgab Vi

Last reported at 2014-Oct-04 15:28 UTC. Time now 2014-Nov-22 09:05 UTC.
Position N 43°32' E 007°02'.
Warning: this ship's position is 48 days out of date.

Length 49 m; draft 2.9 m.

Type: Pleasure craft. MMSI: 319394000.

Date/timePositionNaut miles runAvg speedWind from/ knotsBaromVisibWave heightAir tempDewpointWater temp
2014-Oct-04 15:28N 43°32' E 007°02'0 0.0
2014-Oct-04 14:33N 43°32' E 007°02'0 0.2
2014-Oct-04 13:30N 43°33' E 007°02'7 7.0
2014-Oct-04 12:33N 43°28' E 007°09'  
2014-Oct-01 08:15N 37°55' E 023°01'15 5.4
2014-Oct-01 05:33N 37°52' E 023°19'1111.3
2014-Oct-01 04:33N 37°51' E 023°33'1010.0
2014-Oct-01 03:33N 37°45' E 023°43'1410.6
2014-Oct-01 02:16N 37°37' E 023°57'811.4
2014-Oct-01 01:32N 37°33' E 024°06'1110.6
2014-Oct-01 00:32N 37°30' E 024°19'1110.4
2014-Sep-30 23:31N 37°31' E 024°33'1010.1
2014-Sep-30 22:33N 37°24' E 024°41'1111.5
2014-Sep-30 21:33N 37°19' E 024°54'1212.0
2014-Sep-30 20:33N 37°19' E 025°09'1211.9
2014-Sep-30 19:33N 37°20' E 025°24'1110.5
2014-Sep-30 18:33N 37°22' E 025°37'9 9.2
2014-Sep-30 17:33N 37°25' E 025°48'10 9.4
2014-Sep-30 16:29N 37°28' E 025°60'1011.0
2014-Sep-30 15:33N 37°32' E 026°12'9 8.6
2014-Sep-30 14:33N 37°30' E 026°22'  

Dump ship's entire track history